createdAt,value
2022-12-08T00:19:02.439Z,100
2022-12-08T00:47:25.460Z,100
2022-12-08T01:15:32.872Z,100
2022-12-08T01:43:33.320Z,100
2022-12-08T02:12:09.098Z,100
2022-12-08T02:40:14.525Z,100
2022-12-08T03:08:29.018Z,100
2022-12-08T03:36:47.753Z,100
2022-12-08T04:05:07.448Z,100
2022-12-08T04:33:53.832Z,100
2022-12-08T05:02:57.028Z,100
2022-12-08T05:31:43.440Z,99.09
2022-12-08T06:00:28.749Z,97.7
2022-12-08T06:29:15.580Z,99.32
2022-12-08T06:58:16.725Z,99.41
2022-12-08T07:27:13.857Z,98.92
2022-12-08T07:56:10.562Z,98.05
2022-12-08T08:24:45.609Z,99.78
2022-12-08T08:52:48.500Z,100
2022-12-08T09:21:10.588Z,94.42
2022-12-08T09:49:28.447Z,91.07
2022-12-08T10:17:47.759Z,88.61
2022-12-08T10:46:07.536Z,85.79
2022-12-08T11:14:36.180Z,83.26
2022-12-08T11:42:47.908Z,80.93
2022-12-08T12:11:04.005Z,77.44
2022-12-08T12:39:29.959Z,74.12
2022-12-08T13:08:02.322Z,73.6
2022-12-08T13:36:25.893Z,70.07
2022-12-08T14:05:30.025Z,68.77
2022-12-08T14:33:13.304Z,65.45
2022-12-08T15:01:30.793Z,70.03
2022-12-08T15:29:43.027Z,71.52
2022-12-08T15:58:52.215Z,73.15
2022-12-08T16:54:31.934Z,81.39
2022-12-08T17:22:28.359Z,88.71
2022-12-08T17:50:53.354Z,88.8
2022-12-08T18:19:34.878Z,92.73
2022-12-08T18:48:15.446Z,96.35
2022-12-08T19:17:22.680Z,93.72
2022-12-08T19:46:24.034Z,94.01
2022-12-08T20:15:07.279Z,96.17
2022-12-08T20:43:51.649Z,97.15
2022-12-08T21:12:42.432Z,97.64
2022-12-08T21:41:19.800Z,99.25
2022-12-08T22:10:12.708Z,99.31
2022-12-08T22:38:39.961Z,99.35
2022-12-08T23:07:27.068Z,98.89
2022-12-08T23:36:03.373Z,98.98
